sensor_id;sensor_type;location;lat;lon;timestamp;P1;durP1;ratioP1;P2;durP2;ratioP2
60426;SDS011;46274;47.168;27.604;2022-11-20T00:19:45;35.53;;;17.43;;
60426;SDS011;46274;47.168;27.604;2022-11-20T00:25:48;43.57;;;21.63;;
60426;SDS011;46274;47.168;27.604;2022-11-20T00:31:51;42.67;;;21.17;;
60426;SDS011;46274;47.168;27.604;2022-11-20T00:37:55;43.13;;;20.40;;
60426;SDS011;46274;47.168;27.604;2022-11-20T00:44:08;53.27;;;24.00;;
60426;SDS011;46274;47.168;27.604;2022-11-20T00:50:09;32.93;;;16.33;;
60426;SDS011;46274;47.168;27.604;2022-11-20T00:56:12;35.17;;;18.33;;
60426;SDS011;46274;47.168;27.604;2022-11-20T01:02:21;24.70;;;13.17;;
60426;SDS011;46274;47.168;27.604;2022-11-20T01:08:22;24.17;;;12.13;;
60426;SDS011;46274;47.168;27.604;2022-11-20T01:33:39;16.00;;;9.20;;
60426;SDS011;46274;47.168;27.604;2022-11-20T01:39:52;18.27;;;10.20;;
60426;SDS011;46274;47.168;27.604;2022-11-20T01:58:44;14.33;;;8.37;;
60426;SDS011;46274;47.168;27.604;2022-11-20T02:04:53;13.63;;;7.53;;
60426;SDS011;46274;47.168;27.604;2022-11-20T02:10:59;14.70;;;7.90;;
60426;SDS011;46274;47.168;27.604;2022-11-20T02:17:12;14.57;;;8.33;;
60426;SDS011;46274;47.168;27.604;2022-11-20T02:36:14;10.87;;;5.57;;
60426;SDS011;46274;47.168;27.604;2022-11-20T02:42:20;9.07;;;5.53;;
60426;SDS011;46274;47.168;27.604;2022-11-20T02:54:55;13.00;;;6.57;;
60426;SDS011;46274;47.168;27.604;2022-11-20T03:13:21;15.00;;;7.73;;
60426;SDS011;46274;47.168;27.604;2022-11-20T03:19:24;14.83;;;7.07;;
60426;SDS011;46274;47.168;27.604;2022-11-20T03:25:36;13.67;;;7.50;;
60426;SDS011;46274;47.168;27.604;2022-11-20T03:31:42;10.90;;;6.73;;
60426;SDS011;46274;47.168;27.604;2022-11-20T03:37:49;12.60;;;7.03;;
60426;SDS011;46274;47.168;27.604;2022-11-20T03:44:06;11.83;;;6.57;;
60426;SDS011;46274;47.168;27.604;2022-11-20T03:50:10;11.00;;;6.00;;
60426;SDS011;46274;47.168;27.604;2022-11-20T04:02:21;10.90;;;5.87;;
60426;SDS011;46274;47.168;27.604;2022-11-20T04:21:02;11.37;;;6.90;;
60426;SDS011;46274;47.168;27.604;2022-11-20T04:27:30;9.10;;;5.57;;
60426;SDS011;46274;47.168;27.604;2022-11-20T04:59:46;8.03;;;4.50;;
60426;SDS011;46274;47.168;27.604;2022-11-20T05:05:52;10.20;;;5.73;;
60426;SDS011;46274;47.168;27.604;2022-11-20T05:11:57;8.57;;;5.53;;
60426;SDS011;46274;47.168;27.604;2022-11-20T08:02:28;22.10;;;11.50;;
60426;SDS011;46274;47.168;27.604;2022-11-20T08:55:06;19.50;;;11.40;;
60426;SDS011;46274;47.168;27.604;2022-11-20T10:04:10;21.67;;;11.37;;
60426;SDS011;46274;47.168;27.604;2022-11-20T10:10:19;18.53;;;9.97;;
60426;SDS011;46274;47.168;27.604;2022-11-20T10:41:45;27.23;;;14.73;;
60426;SDS011;46274;47.168;27.604;2022-11-20T10:54:17;24.90;;;13.43;;
60426;SDS011;46274;47.168;27.604;2022-11-20T11:00:24;17.07;;;9.60;;
60426;SDS011;46274;47.168;27.604;2022-11-20T11:12:48;23.93;;;12.30;;
60426;SDS011;46274;47.168;27.604;2022-11-20T11:18:50;20.77;;;11.43;;
60426;SDS011;46274;47.168;27.604;2022-11-20T11:24:52;28.40;;;14.10;;
60426;SDS011;46274;47.168;27.604;2022-11-20T11:30:55;24.57;;;12.17;;
60426;SDS011;46274;47.168;27.604;2022-11-20T11:36:57;25.40;;;13.10;;
60426;SDS011;46274;47.168;27.604;2022-11-20T11:43:01;25.00;;;13.27;;
60426;SDS011;46274;47.168;27.604;2022-11-20T11:55:16;20.87;;;10.83;;
60426;SDS011;46274;47.168;27.604;2022-11-20T12:01:47;27.30;;;13.40;;
60426;SDS011;46274;47.168;27.604;2022-11-20T12:14:33;36.27;;;15.47;;
60426;SDS011;46274;47.168;27.604;2022-11-20T12:20:40;26.50;;;14.13;;
60426;SDS011;46274;47.168;27.604;2022-11-20T12:45:28;66.13;;;16.03;;
60426;SDS011;46274;47.168;27.604;2022-11-20T12:58:05;97.90;;;45.77;;
60426;SDS011;46274;47.168;27.604;2022-11-20T13:10:49;79.60;;;39.50;;
60426;SDS011;46274;47.168;27.604;2022-11-20T13:23:11;29.97;;;13.93;;
60426;SDS011;46274;47.168;27.604;2022-11-20T13:29:23;19.50;;;9.33;;
60426;SDS011;46274;47.168;27.604;2022-11-20T13:41:42;29.80;;;13.40;;
60426;SDS011;46274;47.168;27.604;2022-11-20T13:47:47;47.47;;;21.00;;
60426;SDS011;46274;47.168;27.604;2022-11-20T14:00:12;39.43;;;18.17;;
60426;SDS011;46274;47.168;27.604;2022-11-20T14:06:17;31.10;;;15.57;;
60426;SDS011;46274;47.168;27.604;2022-11-20T14:12:23;168.07;;;18.43;;
60426;SDS011;46274;47.168;27.604;2022-11-20T14:18:30;93.20;;;18.60;;
60426;SDS011;46274;47.168;27.604;2022-11-20T14:24:31;207.07;;;19.93;;
60426;SDS011;46274;47.168;27.604;2022-11-20T14:30:43;161.20;;;18.13;;
60426;SDS011;46274;47.168;27.604;2022-11-20T14:36:47;290.00;;;29.87;;
60426;SDS011;46274;47.168;27.604;2022-11-20T14:42:52;40.03;;;18.43;;
60426;SDS011;46274;47.168;27.604;2022-11-20T14:48:55;293.40;;;24.70;;
60426;SDS011;46274;47.168;27.604;2022-11-20T14:54:58;50.97;;;23.50;;
60426;SDS011;46274;47.168;27.604;2022-11-20T15:01:02;68.03;;;27.90;;
60426;SDS011;46274;47.168;27.604;2022-11-20T15:07:08;48.73;;;20.87;;
60426;SDS011;46274;47.168;27.604;2022-11-20T15:13:15;52.23;;;22.77;;
60426;SDS011;46274;47.168;27.604;2022-11-20T15:19:22;164.87;;;19.60;;
60426;SDS011;46274;47.168;27.604;2022-11-20T15:25:25;181.80;;;19.80;;
60426;SDS011;46274;47.168;27.604;2022-11-20T15:31:27;35.87;;;15.63;;
60426;SDS011;46274;47.168;27.604;2022-11-20T15:37:28;130.63;;;15.77;;
60426;SDS011;46274;47.168;27.604;2022-11-20T15:43:30;25.47;;;12.23;;
60426;SDS011;46274;47.168;27.604;2022-11-20T15:49:32;257.27;;;22.70;;
60426;SDS011;46274;47.168;27.604;2022-11-20T15:55:34;196.77;;;17.70;;
60426;SDS011;46274;47.168;27.604;2022-11-20T16:01:35;110.87;;;17.23;;
60426;SDS011;46274;47.168;27.604;2022-11-20T16:07:37;158.23;;;21.33;;
60426;SDS011;46274;47.168;27.604;2022-11-20T16:13:39;50.97;;;19.87;;
60426;SDS011;46274;47.168;27.604;2022-11-20T16:20:00;131.73;;;26.90;;
60426;SDS011;46274;47.168;27.604;2022-11-20T16:26:08;44.87;;;18.00;;
60426;SDS011;46274;47.168;27.604;2022-11-20T16:32:13;99.93;;;21.93;;
60426;SDS011;46274;47.168;27.604;2022-11-20T16:38:15;242.77;;;22.33;;
60426;SDS011;46274;47.168;27.604;2022-11-20T16:44:17;48.73;;;19.57;;
60426;SDS011;46274;47.168;27.604;2022-11-20T16:50:18;32.20;;;15.00;;
60426;SDS011;46274;47.168;27.604;2022-11-20T16:56:21;34.57;;;14.03;;
60426;SDS011;46274;47.168;27.604;2022-11-20T17:02:27;36.87;;;15.60;;
60426;SDS011;46274;47.168;27.604;2022-11-20T17:08:29;40.53;;;17.13;;
60426;SDS011;46274;47.168;27.604;2022-11-20T17:14:31;72.17;;;24.27;;
60426;SDS011;46274;47.168;27.604;2022-11-20T17:20:32;69.37;;;24.47;;
60426;SDS011;46274;47.168;27.604;2022-11-20T17:26:35;53.67;;;21.23;;
60426;SDS011;46274;47.168;27.604;2022-11-20T17:32:38;43.83;;;17.80;;
60426;SDS011;46274;47.168;27.604;2022-11-20T17:38:45;39.60;;;16.47;;
60426;SDS011;46274;47.168;27.604;2022-11-20T17:44:47;38.13;;;17.20;;
60426;SDS011;46274;47.168;27.604;2022-11-20T17:50:49;40.20;;;19.03;;
60426;SDS011;46274;47.168;27.604;2022-11-20T17:56:51;30.40;;;14.40;;
60426;SDS011;46274;47.168;27.604;2022-11-20T18:03:11;29.43;;;14.13;;
60426;SDS011;46274;47.168;27.604;2022-11-20T18:09:13;55.10;;;17.23;;
60426;SDS011;46274;47.168;27.604;2022-11-20T18:15:16;31.73;;;13.57;;
60426;SDS011;46274;47.168;27.604;2022-11-20T18:21:18;23.30;;;11.27;;
60426;SDS011;46274;47.168;27.604;2022-11-20T18:27:20;48.83;;;18.60;;
60426;SDS011;46274;47.168;27.604;2022-11-20T18:33:22;28.27;;;13.00;;
60426;SDS011;46274;47.168;27.604;2022-11-20T18:39:28;57.10;;;22.37;;
60426;SDS011;46274;47.168;27.604;2022-11-20T18:45:30;58.13;;;21.83;;
60426;SDS011;46274;47.168;27.604;2022-11-20T18:51:32;222.73;;;29.07;;
60426;SDS011;46274;47.168;27.604;2022-11-20T18:57:34;57.07;;;21.90;;
60426;SDS011;46274;47.168;27.604;2022-11-20T19:03:35;47.30;;;19.80;;
60426;SDS011;46274;47.168;27.604;2022-11-20T19:09:41;56.83;;;17.00;;
60426;SDS011;46274;47.168;27.604;2022-11-20T19:15:44;45.03;;;17.30;;
60426;SDS011;46274;47.168;27.604;2022-11-20T19:21:45;459.17;;;36.33;;
60426;SDS011;46274;47.168;27.604;2022-11-20T19:27:47;85.37;;;28.43;;
60426;SDS011;46274;47.168;27.604;2022-11-20T19:33:53;128.63;;;47.90;;
60426;SDS011;46274;47.168;27.604;2022-11-20T19:39:56;79.73;;;31.47;;
60426;SDS011;46274;47.168;27.604;2022-11-20T19:46:00;332.63;;;37.53;;
60426;SDS011;46274;47.168;27.604;2022-11-20T19:52:02;49.70;;;20.63;;
60426;SDS011;46274;47.168;27.604;2022-11-20T19:58:04;51.20;;;21.77;;
60426;SDS011;46274;47.168;27.604;2022-11-20T20:04:06;60.73;;;23.53;;
60426;SDS011;46274;47.168;27.604;2022-11-20T20:10:08;55.67;;;21.77;;
60426;SDS011;46274;47.168;27.604;2022-11-20T20:16:17;72.20;;;23.80;;
60426;SDS011;46274;47.168;27.604;2022-11-20T20:22:21;45.60;;;19.43;;
60426;SDS011;46274;47.168;27.604;2022-11-20T20:28:23;55.03;;;18.50;;
60426;SDS011;46274;47.168;27.604;2022-11-20T20:34:24;67.67;;;19.40;;
60426;SDS011;46274;47.168;27.604;2022-11-20T20:40:29;84.70;;;24.53;;
60426;SDS011;46274;47.168;27.604;2022-11-20T20:46:31;77.37;;;22.30;;
60426;SDS011;46274;47.168;27.604;2022-11-20T20:52:33;36.67;;;15.53;;
60426;SDS011;46274;47.168;27.604;2022-11-20T20:58:35;38.07;;;16.70;;
60426;SDS011;46274;47.168;27.604;2022-11-20T21:04:37;42.00;;;18.30;;
60426;SDS011;46274;47.168;27.604;2022-11-20T21:10:39;38.07;;;17.93;;
60426;SDS011;46274;47.168;27.604;2022-11-20T21:16:41;42.77;;;16.77;;
60426;SDS011;46274;47.168;27.604;2022-11-20T21:22:44;38.63;;;15.27;;
60426;SDS011;46274;47.168;27.604;2022-11-20T21:28:45;36.73;;;16.17;;
60426;SDS011;46274;47.168;27.604;2022-11-20T21:34:48;68.60;;;24.40;;
60426;SDS011;46274;47.168;27.604;2022-11-20T21:40:49;43.53;;;17.97;;
60426;SDS011;46274;47.168;27.604;2022-11-20T21:46:51;37.23;;;16.00;;
60426;SDS011;46274;47.168;27.604;2022-11-20T21:52:53;39.50;;;17.27;;
60426;SDS011;46274;47.168;27.604;2022-11-20T21:58:54;78.97;;;19.83;;
60426;SDS011;46274;47.168;27.604;2022-11-20T22:04:56;67.07;;;20.93;;
60426;SDS011;46274;47.168;27.604;2022-11-20T22:11:02;25.63;;;11.50;;
60426;SDS011;46274;47.168;27.604;2022-11-20T22:17:09;35.00;;;15.47;;
60426;SDS011;46274;47.168;27.604;2022-11-20T22:23:14;43.40;;;16.80;;
60426;SDS011;46274;47.168;27.604;2022-11-20T22:29:17;29.13;;;12.80;;
60426;SDS011;46274;47.168;27.604;2022-11-20T22:35:21;51.20;;;20.80;;
60426;SDS011;46274;47.168;27.604;2022-11-20T22:41:23;40.37;;;16.90;;
60426;SDS011;46274;47.168;27.604;2022-11-20T22:47:27;43.07;;;17.47;;
60426;SDS011;46274;47.168;27.604;2022-11-20T22:53:29;76.67;;;18.00;;
60426;SDS011;46274;47.168;27.604;2022-11-20T22:59:30;31.10;;;13.17;;
60426;SDS011;46274;47.168;27.604;2022-11-20T23:05:32;33.90;;;13.30;;
60426;SDS011;46274;47.168;27.604;2022-11-20T23:11:34;26.40;;;11.03;;
60426;SDS011;46274;47.168;27.604;2022-11-20T23:17:36;100.30;;;15.93;;
60426;SDS011;46274;47.168;27.604;2022-11-20T23:23:38;30.93;;;12.23;;
60426;SDS011;46274;47.168;27.604;2022-11-20T23:29:40;26.40;;;10.77;;
60426;SDS011;46274;47.168;27.604;2022-11-20T23:35:45;55.27;;;14.00;;
60426;SDS011;46274;47.168;27.604;2022-11-20T23:41:47;55.00;;;14.17;;
60426;SDS011;46274;47.168;27.604;2022-11-20T23:47:49;27.93;;;11.33;;
60426;SDS011;46274;47.168;27.604;2022-11-20T23:53:51;26.37;;;11.13;;
60426;SDS011;46274;47.168;27.604;2022-11-20T23:59:52;22.07;;;9.67;;
